Time;durP1;ratioP1;P1;durP2;ratioP2;P2;SDS_P1;SDS_P2;PMS_P1;PMS_P2;Temp;Humidity;BMP_temperature;BMP_pressure;BME280_temperature;BME280_humidity;BME280_pressure;Samples;Min_cycle;Max_cycle;Signal;HPM_P1;HPM_P2
2021/12/14 00:02:41;;;;;;;28.77;18.58;;;;;;;-1.34;85.51;100513.81;4962250;29;20294;-62
2021/12/14 00:05:31;;;;;;;30.88;19.00;;;;;;;-1.39;86.61;100520.38;4953433;29;20331;-62
2021/12/14 00:08:18;;;;;;;32.92;19.42;;;;;;;-1.30;86.79;100535.97;4956487;29;20284;-62
2021/12/14 00:13:59;;;;;;;31.02;19.23;;;;;;;-1.28;85.84;100523.34;4961856;29;20118;-62
2021/12/14 00:16:50;;;;;;;30.60;18.95;;;;;;;-1.62;86.78;100468.66;4962398;29;20386;-62
2021/12/14 00:19:37;;;;;;;31.73;18.67;;;;;;;-1.09;86.92;100530.03;4962716;29;20035;-62
2021/12/14 00:22:36;;;;;;;31.02;18.33;;;;;;;-1.17;86.28;100539.00;4950232;29;20027;-62
2021/12/14 00:25:27;;;;;;;30.65;19.08;;;;;;;-1.51;86.70;100469.94;4963270;29;20341;-62
2021/12/14 00:28:33;;;;;;;31.70;19.15;;;;;;;-1.36;86.50;100519.63;4963376;29;20042;-63
2021/12/14 00:31:20;;;;;;;27.55;18.13;;;;;;;-1.25;86.74;100543.78;4946340;29;20353;-62
2021/12/14 00:34:08;;;;;;;31.95;19.17;;;;;;;-1.27;86.42;100542.84;4950103;29;20035;-62
2021/12/14 00:36:53;;;;;;;31.15;19.13;;;;;;;-1.28;85.97;100536.91;4948670;29;20035;-62
2021/12/14 00:39:42;;;;;;;30.13;19.17;;;;;;;-1.64;85.68;100491.44;4960951;29;20028;-62
2021/12/14 00:42:28;;;;;;;31.23;19.00;;;;;;;-1.18;85.35;100540.69;4964009;28;20117;-62
2021/12/14 00:45:15;;;;;;;31.55;18.55;;;;;;;-1.46;85.94;100492.97;4962938;29;20031;-64
2021/12/14 00:48:01;;;;;;;28.05;18.13;;;;;;;-1.13;85.95;100533.25;4962272;29;20034;-63
2021/12/14 00:50:51;;;;;;;32.65;19.25;;;;;;;-1.51;85.94;100484.28;4963745;29;20038;-61
2021/12/14 00:53:41;;;;;;;28.23;18.08;;;;;;;-1.15;86.18;100543.34;4960551;28;20035;-61
2021/12/14 00:56:27;;;;;;;29.77;18.38;;;;;;;-1.00;87.22;100529.50;4962133;29;20070;-62
2021/12/14 00:59:14;;;;;;;28.27;17.92;;;;;;;-1.03;85.38;100535.34;4959712;28;20591;-63
2021/12/14 01:02:09;;;;;;;31.27;18.05;;;;;;;-1.11;85.72;100526.53;4962286;28;20082;-63
2021/12/14 01:04:59;;;;;;;28.70;18.63;;;;;;;-1.18;86.02;100516.94;4962180;29;20320;-63
2021/12/14 01:07:45;;;;;;;28.75;19.00;;;;;;;-1.12;86.36;100528.22;4957276;29;20103;-63
2021/12/14 01:10:45;;;;;;;29.80;17.92;;;;;;;-1.35;86.29;100460.38;4962185;29;20039;-63
2021/12/14 01:13:36;;;;;;;31.05;19.27;;;;;;;-1.00;86.72;100517.66;4961686;29;20039;-63
2021/12/14 01:16:37;;;;;;;28.20;18.92;;;;;;;-1.08;86.92;100493.63;4962968;28;20142;-62
2021/12/14 01:19:28;;;;;;;36.55;21.33;;;;;;;-0.79;86.47;100544.72;4961169;29;20031;-63
2021/12/14 01:22:40;;;;;;;40.30;21.00;;;;;;;-1.18;85.39;100476.28;4955975;29;20035;-62
2021/12/14 01:25:35;;;;;;;35.58;21.45;;;;;;;-0.94;84.85;100527.19;4959297;29;20344;-62
2021/12/14 01:28:25;;;;;;;42.90;21.95;;;;;;;-1.36;84.40;100468.81;4946706;29;20077;-62
2021/12/14 01:31:27;;;;;;;36.50;21.38;;;;;;;-1.29;85.21;100476.72;4961449;29;20074;-62
2021/12/14 01:34:17;;;;;;;36.35;20.48;;;;;;;-1.12;85.36;100510.44;4956309;29;20027;-62
2021/12/14 01:37:13;;;;;;;35.33;20.10;;;;;;;-1.52;85.53;100452.09;4949739;29;20043;-63
2021/12/14 01:40:06;;;;;;;37.13;19.42;;;;;;;-0.97;85.84;100516.91;4961708;29;20019;-62
2021/12/14 01:42:52;;;;;;;33.58;20.45;;;;;;;-1.09;84.79;100512.22;4961394;29;20057;-62
2021/12/14 01:45:38;;;;;;;32.17;18.50;;;;;;;-1.13;85.29;100507.81;4949251;29;20328;-62
2021/12/14 01:48:25;;;;;;;35.97;20.15;;;;;;;-0.97;85.25;100516.91;4954254;29;20046;-62
2021/12/14 01:51:12;;;;;;;33.67;19.42;;;;;;;-0.97;86.17;100510.16;4960166;29;20336;-62
2021/12/14 01:53:58;;;;;;;33.10;19.42;;;;;;;-0.82;86.34;100522.59;4961689;29;20029;-62
2021/12/14 01:56:45;;;;;;;35.70;20.67;;;;;;;-0.78;86.26;100511.72;4961062;29;20040;-62
2021/12/14 01:59:36;;;;;;;33.85;19.00;;;;;;;-0.94;85.30;100520.47;4961352;28;20033;-63
2021/12/14 02:02:34;;;;;;;28.95;19.05;;;;;;;-1.26;84.68;100446.34;4947205;29;20035;-63
2021/12/14 02:05:28;;;;;;;29.50;18.35;;;;;;;-0.84;85.30;100503.00;4959801;28;20129;-64
2021/12/14 02:08:38;;;;;;;31.80;19.15;;;;;;;-0.89;84.85;100502.81;4961790;29;20039;-62
2021/12/14 02:11:25;;;;;;;29.33;17.88;;;;;;;-0.80;84.84;100520.09;4945770;29;20033;-63
2021/12/14 02:14:11;;;;;;;30.98;18.50;;;;;;;-0.85;84.21;100504.69;4958732;29;20024;-63
2021/12/14 02:17:03;;;;;;;25.88;16.90;;;;;;;-0.81;85.04;100536.16;4957457;29;20078;-62
2021/12/14 02:19:49;;;;;;;30.08;16.80;;;;;;;-0.81;84.39;100519.25;4959010;29;20252;-62
2021/12/14 02:22:35;;;;;;;29.33;17.42;;;;;;;-0.84;84.76;100501.34;4957761;29;20220;-62
2021/12/14 02:25:22;;;;;;;28.73;16.00;;;;;;;-0.84;84.02;100508.06;4957528;28;20094;-63
2021/12/14 02:28:13;;;;;;;24.80;15.23;;;;;;;-1.19;83.04;100447.47;4959605;29;20043;-63
2021/12/14 02:31:01;;;;;;;25.17;15.93;;;;;;;-0.93;82.82;100504.38;4960234;29;20034;-63
2021/12/14 02:33:50;;;;;;;25.23;16.42;;;;;;;-1.24;82.71;100462.53;4956240;29;20046;-63
2021/12/14 02:36:40;;;;;;;26.55;15.10;;;;;;;-1.32;83.37;100435.97;4952638;29;20070;-63
2021/12/14 02:42:30;;;;;;;28.65;16.58;;;;;;;-1.12;82.66;100509.56;4958657;29;20110;-63
2021/12/14 02:45:20;;;;;;;27.75;15.50;;;;;;;-1.67;83.28;100443.03;4958924;29;20197;-63
2021/12/14 02:48:08;;;;;;;29.38;16.23;;;;;;;-1.40;83.98;100481.41;4946174;29;20027;-62
2021/12/14 02:50:54;;;;;;;24.92;15.38;;;;;;;-1.24;83.08;100507.38;4958206;29;20047;-63
2021/12/14 02:53:44;;;;;;;23.08;15.50;;;;;;;-1.41;83.27;100502.53;4958198;29;20022;-63
2021/12/14 02:56:32;;;;;;;28.60;16.10;;;;;;;-1.39;84.16;100505.13;4960320;29;20110;-63
2021/12/14 02:59:24;;;;;;;25.92;15.63;;;;;;;-1.27;85.41;100504.72;4955714;28;20051;-62
2021/12/14 03:02:15;;;;;;;23.13;14.80;;;;;;;-1.71;84.78;100446.28;4959177;29;20038;-62
2021/12/14 03:05:07;;;;;;;28.77;15.52;;;;;;;-1.43;83.95;100495.63;4959134;29;20436;-62
2021/12/14 03:08:04;;;;;;;24.65;15.18;;;;;;;-1.26;84.44;100506.47;4943315;29;20416;-62
2021/12/14 03:11:10;;;;;;;24.23;14.90;;;;;;;-1.44;84.26;100476.13;4958012;29;20341;-62
2021/12/14 03:13:56;;;;;;;22.88;14.65;;;;;;;-1.25;84.45;100504.00;4944665;29;20046;-62
2021/12/14 03:16:42;;;;;;;29.17;15.98;;;;;;;-1.51;84.06;100485.19;4954259;29;20042;-62
2021/12/14 03:19:28;;;;;;;25.88;15.60;;;;;;;-1.37;83.67;100495.88;4948891;29;20019;-61
2021/12/14 03:22:57;;;;;;;26.67;15.68;;;;;;;-1.42;83.89;100507.53;4960694;29;20362;-62
2021/12/14 03:25:48;;;;;;;27.17;15.27;;;;;;;-1.84;83.98;100436.41;4948077;29;20036;-61
2021/12/14 03:28:35;;;;;;;28.55;16.52;;;;;;;-1.99;84.52;100434.13;4943450;29;20126;-62
2021/12/14 03:31:34;;;;;;;31.35;16.73;;;;;;;-1.96;84.28;100426.66;4958089;29;20027;-62
2021/12/14 03:34:27;;;;;;;30.10;16.33;;;;;;;-1.97;84.32;100438.44;4954261;29;20035;-62
2021/12/14 03:37:20;;;;;;;29.80;17.00;;;;;;;-1.38;85.05;100524.66;4958968;29;20043;-62
2021/12/14 03:40:07;;;;;;;26.27;16.30;;;;;;;-1.41;84.54;100506.72;4960915;28;20041;-62
2021/12/14 03:42:53;;;;;;;28.33;16.42;;;;;;;-1.32;84.84;100508.78;4959340;29;20256;-60
2021/12/14 03:45:39;;;;;;;25.92;15.52;;;;;;;-1.39;83.84;100500.91;4943469;28;20063;-62
2021/12/14 03:48:29;;;;;;;27.75;16.92;;;;;;;-1.83;83.47;100443.25;4944584;29;20118;-61
2021/12/14 03:51:20;;;;;;;26.98;16.42;;;;;;;-1.60;84.24;100469.56;4945480;28;20348;-62
2021/12/14 03:54:06;;;;;;;27.60;17.80;;;;;;;-1.41;84.06;100510.16;4956170;29;20109;-63
2021/12/14 03:56:53;;;;;;;31.20;17.15;;;;;;;-1.38;83.42;100509.41;4958084;29;20046;-62
2021/12/14 03:59:40;;;;;;;26.15;16.15;;;;;;;-1.40;83.55;100501.72;4956825;29;20044;-62
2021/12/14 04:02:27;;;;;;;25.25;16.73;;;;;;;-1.29;85.42;100491.97;4959376;28;20228;-62
2021/12/14 04:05:13;;;;;;;31.98;18.23;;;;;;;-1.27;85.52;100505.63;4959259;29;20086;-61
2021/12/14 04:07:59;;;;;;;28.33;16.05;;;;;;;-1.31;83.68;100510.50;4957561;29;20063;-61
2021/12/14 04:10:48;;;;;;;28.55;17.83;;;;;;;-1.67;83.98;100453.19;4958720;29;20237;-62
2021/12/14 04:13:39;;;;;;;29.67;17.48;;;;;;;-1.63;84.38;100484.69;4959670;29;20039;-62
2021/12/14 04:16:26;;;;;;;35.53;18.08;;;;;;;-1.39;84.76;100508.53;4957591;29;20027;-62
2021/12/14 04:19:20;;;;;;;26.10;16.85;;;;;;;-1.36;84.25;100525.56;4958957;29;20197;-63
2021/12/14 04:22:12;;;;;;;29.45;18.45;;;;;;;-1.59;83.98;100481.47;4958612;29;20514;-62
2021/12/14 04:25:01;;;;;;;;;;;;;;;-1.41;83.77;100517.75;4959465;29;20039;-63
2021/12/14 04:27:47;;;;;;;;;;;;;;;-1.68;84.70;100517.50;4958836;29;19910;-62
2021/12/14 04:30:33;;;;;;;;;;;;;;;-1.70;85.10;100516.56;4961786;28;19978;-61
2021/12/14 04:33:24;;;;;;;;;;;;;;;-1.65;85.98;100512.56;4962462;29;19918;-62
2021/12/14 04:36:13;;;;;;;;;;;;;;;-1.70;85.47;100513.16;4961951;29;19917;-62
2021/12/14 04:39:25;;;;;;;;;;;;;;;-1.86;85.02;100521.81;4961777;29;20112;-62
2021/12/14 04:54:44;;;;;;;;;;;;;;;-1.67;84.46;100538.69;4955102;29;20100;-60
2021/12/14 04:57:38;;;;;;;;;;;;;;;-1.68;84.91;100537.81;4962778;28;19958;-60
2021/12/14 05:00:24;;;;;;;;;;;;;;;-1.60;84.96;100536.44;4962846;29;19922;-60
2021/12/14 05:03:18;;;;;;;;;;;;;;;-1.61;84.39;100529.66;4948923;29;19957;-61
2021/12/14 05:06:13;;;;;;;;;;;;;;;-1.40;85.93;100534.75;4959336;29;19922;-58
2021/12/14 05:09:26;;;;;;;;;;;;;;;-1.32;84.58;100539.28;4963388;28;19914;-60
2021/12/14 05:12:13;;;;;;;;;;;;;;;-1.25;84.39;100539.56;4946508;29;20274;-60
2021/12/14 05:15:00;;;;;;;;;;;;;;;-1.42;83.90;100540.56;4963003;29;19934;-61
2021/12/14 05:17:46;;;;;;;;;;;;;;;-1.64;82.94;100536.25;4946835;29;19923;-61
2021/12/14 05:20:32;;;;;;;;;;;;;;;-1.71;83.88;100532.63;4960709;29;20013;-61
2021/12/14 05:23:22;;;;;;;;;;;;;;;-1.49;83.38;100541.13;4961570;29;19922;-61
2021/12/14 05:26:08;;;;;;;;;;;;;;;-1.50;83.64;100536.84;4959891;28;20115;-61
2021/12/14 05:28:54;;;;;;;;;;;;;;;-1.60;83.31;100535.59;4947221;29;19911;-61
2021/12/14 05:31:41;;;;;;;;;;;;;;;-1.59;84.26;100540.72;4959975;29;19928;-61
2021/12/14 05:34:28;;;;;;;;;;;;;;;-1.58;84.45;100547.56;4961646;29;20219;-61
2021/12/14 05:37:17;;;;;;;;;;;;;;;-1.50;83.27;100547.00;4956340;29;20216;-61
2021/12/14 05:40:15;;;;;;;;;;;;;;;-1.39;83.70;100556.78;4957670;28;19926;-60
2021/12/14 05:43:07;;;;;;;;;;;;;;;-1.39;83.12;100556.78;4957921;29;19914;-61
2021/12/14 05:45:54;;;;;;;;;;;;;;;-1.33;82.88;100551.09;4961039;29;19929;-61
2021/12/14 05:48:40;;;;;;;;;;;;;;;-1.19;84.37;100558.41;4961337;29;19966;-61
2021/12/14 05:51:27;;;;;;;;;;;;;;;-1.30;82.78;100550.34;4960319;29;19930;-61
2021/12/14 05:54:32;;;;;;;;;;;;;;;-1.36;82.53;100552.66;4954558;29;19953;-60
2021/12/14 05:57:19;;;;;;;;;;;;;;;-1.30;83.28;100555.44;4961643;29;19949;-61
2021/12/14 06:00:06;;;;;;;;;;;;;;;-1.28;82.11;100559.78;4961314;29;19915;-61
2021/12/14 06:02:53;;;;;;;;;;;;;;;-1.28;83.62;100562.31;4959907;29;19949;-61
2021/12/14 06:05:38;;;;;;;;;;;;;;;-1.19;84.05;100566.03;4960462;29;19922;-61
2021/12/14 06:08:26;;;;;;;;;;;;;;;-1.25;83.35;100559.03;4960491;29;19914;-61
2021/12/14 06:11:20;;;;;;;;;;;;;;;-1.25;83.11;100554.81;4960780;29;19962;-62
2021/12/14 06:14:12;;;;;;;;;;;;;;;-1.25;83.34;100554.81;4961182;29;19922;-61
2021/12/14 06:17:04;;;;;;;;;;;;;;;-1.29;83.04;100547.88;4942431;29;19926;-61
2021/12/14 06:19:52;;;;;;;;;;;;;;;-1.35;82.18;100554.38;4944276;29;20006;-61
2021/12/14 06:22:38;;;;;;;;;;;;;;;-1.31;82.49;100544.41;4958274;29;19922;-61
2021/12/14 06:25:27;;;;;;;;;;;;;;;-1.27;82.67;100541.19;4988236;28;19922;-62
2021/12/14 06:28:20;;;;;;;;;;;;;;;-1.34;82.60;100546.84;4959701;29;19993;-61
2021/12/14 06:31:06;;;;;;;;;;;;;;;-1.23;83.48;100558.31;4959530;29;20199;-61
2021/12/14 06:33:52;;;;;;;;;;;;;;;-1.20;82.32;100559.22;4957613;29;19985;-61
2021/12/14 06:36:53;;;;;;;;;;;;;;;-1.16;83.67;100568.72;4960917;28;19922;-61
2021/12/14 06:40:14;;;;;;;;;;;;;;;-1.08;83.24;100554.63;4961162;29;19922;-61
2021/12/14 06:43:01;;;;;;;;;;;;;;;-1.41;82.02;100563.50;4901524;29;19957;-62
2021/12/14 06:45:55;;;;;;;;;;;;;;;-1.25;82.13;100570.06;4956760;29;20128;-62
2021/12/14 06:48:42;;;;;;;;;;;;;;;-1.60;82.29;100564.38;4958932;29;19918;-61
2021/12/14 06:51:35;;;;;;;;;;;;;;;-1.69;81.96;100573.31;4954798;28;19929;-62
2021/12/14 06:54:23;;;;;;;;;;;;;;;-1.54;82.15;100565.44;4959046;29;19941;-60
2021/12/14 06:57:08;;;;;;;;;;;;;;;-1.62;82.56;100568.53;4959721;29;19953;-61
2021/12/14 06:59:55;;;;;;;;;;;;;;;-1.42;84.23;100566.81;4957774;29;20199;-58
2021/12/14 07:02:49;;;;;;;;;;;;;;;-1.30;82.54;100574.06;4960000;29;19993;-61
2021/12/14 07:05:35;;;;;;;;;;;;;;;-1.27;82.72;100579.31;4947174;29;19952;-60
2021/12/14 07:08:24;;;;;;;;;;;;;;;-1.07;82.50;100581.75;4959307;29;19945;-60
2021/12/14 07:11:10;;;;;;;;;;;;;;;-1.07;81.58;100585.19;4946404;29;20119;-60
2021/12/14 07:13:57;;;;;;;;;;;;;;;-1.13;81.45;100581.53;4946404;29;20216;-61
2021/12/14 07:16:47;;;;;;;;;;;;;;;-1.16;82.03;100587.34;4956958;29;19926;-60
2021/12/14 07:19:40;;;;;;;;;;;;;;;-1.06;81.05;100593.69;4955419;28;19922;-61
2021/12/14 07:22:32;;;;;;;;;;;;;;;-1.07;82.21;100591.94;4957755;29;19914;-62
2021/12/14 07:25:20;;;;;;;;;;;;;;;-1.31;81.73;100585.06;4959173;29;19958;-62
2021/12/14 07:28:10;;;;;;;;;;;;;;;-1.25;80.73;100584.44;4961246;29;20208;-61
2021/12/14 07:30:59;;;;;;;;;;;;;;;-1.23;81.86;100581.19;4960600;29;19990;-61
2021/12/14 07:33:49;;;;;;;;;;;;;;;-1.16;82.26;100583.94;4959619;29;19920;-61
2021/12/14 07:36:36;;;;;;;;;;;;;;;-1.03;82.36;100587.84;4954901;29;19946;-59
2021/12/14 07:39:22;;;;;;;;;;;;;;;-1.33;80.98;100589.19;4954182;29;19929;-62
2021/12/14 07:42:14;;;;;;;;;;;;;;;-1.42;80.87;100589.69;4956581;29;19926;-60
2021/12/14 07:45:00;;;;;;;;;;;;;;;-1.49;80.81;100582.63;4956297;29;19945;-60
2021/12/14 07:47:50;;;;;;;;;;;;;;;-1.38;80.71;100588.16;4958944;29;19917;-61
2021/12/14 07:50:39;;;;;;;;;;;;;;;-1.07;81.76;100586.84;4960157;28;20122;-60
2021/12/14 07:53:33;;;;;;;;;;;;;;;-1.01;80.07;100583.69;4956192;29;20280;-61
2021/12/14 07:56:33;;;;;;;;;;;;;;;-1.06;79.89;100592.00;4956022;28;20021;-60
2021/12/14 07:59:30;;;;;;;;;;;;;;;-0.87;81.44;100587.63;4953614;28;19929;-59
2021/12/14 08:02:24;;;;;;;;;;;;;;;-1.00;79.88;100593.06;4939398;29;19933;-60
2021/12/14 08:05:13;;;;;;;;;;;;;;;-1.21;79.65;100593.94;4954443;28;19929;-61
2021/12/14 08:07:59;;;;;;;;;;;;;;;-1.22;77.78;100593.06;4961357;29;20041;-61
2021/12/14 08:11:08;;;;;;;;;;;;;;;-1.16;78.98;100594.13;4959203;28;20101;-61
2021/12/14 08:13:55;;;;;;;;;;;;;;;-0.90;80.14;100596.03;4959370;29;19929;-61
2021/12/14 08:16:42;;;;;;;;;;;;;;;-0.75;79.36;100603.38;4957267;29;19910;-61
2021/12/14 08:19:31;;;;;;;;;;;;;;;-0.71;78.83;100596.75;4959358;29;19954;-61
2021/12/14 08:22:34;;;;;;;;;;;;;;;-0.78;77.39;100597.34;4956720;29;20171;-61
2021/12/14 08:25:27;;;;;;;;;;;;;;;-0.91;77.85;100595.97;4958253;29;20100;-61
2021/12/14 08:28:13;;;;;;;;;;;;;;;-1.05;77.74;100596.28;4954819;29;20111;-62
2021/12/14 08:31:02;;;;;;;;;;;;;;;-0.98;78.66;100599.94;4961462;29;19957;-62
2021/12/14 08:33:59;;;;;;;;;;;;;;;-0.82;79.67;100596.31;4954997;29;19948;-61
2021/12/14 08:36:46;;;;;;;;;;;;;;;-0.62;80.56;100607.28;4958251;29;19929;-62
2021/12/14 08:39:38;;;;;;;;;;;;;;;-0.57;79.40;100600.72;4956795;29;20215;-61
2021/12/14 08:42:32;;;;;;;;;;;;;;;-0.49;79.68;100606.06;4958737;29;20196;-61
2021/12/14 08:45:27;;;;;;;;;;;;;;;-0.35;79.79;100601.53;4982604;28;19922;-62
2021/12/14 08:48:22;;;;;;;;;;;;;;;-0.28;79.32;100602.63;4958464;29;20092;-61
2021/12/14 08:51:14;;;;;;;;;;;;;;;-0.29;79.78;100601.72;4960379;29;19929;-61
2021/12/14 08:54:11;;;;;;;;;;;;;;;-0.35;78.01;100599.81;4957207;29;19930;-62
2021/12/14 08:57:04;;;;;;;;;;;;;;;-0.32;79.31;100598.22;4954213;29;20107;-61
2021/12/14 08:59:53;;;;;;;;;;;;;;;-0.46;77.22;100601.09;4957867;29;20263;-61
2021/12/14 09:02:40;;;;;;;;;;;;;;;-0.59;77.57;100594.69;4959882;28;19933;-61
2021/12/14 09:05:29;;;;;;;;;;;;;;;-0.72;77.91;100595.03;4959323;28;19922;-61
2021/12/14 09:08:15;;;;;;;;;;;;;;;-0.77;78.01;100594.84;4957689;29;19918;-60
2021/12/14 09:11:01;;;;;;;;;;;;;;;-0.77;78.37;100589.75;4959623;29;19981;-60
2021/12/14 09:13:47;;;;;;;;;;;;;;;-0.81;78.39;100598.06;4957468;29;20204;-61
2021/12/14 09:16:34;;;;;;;;;;;;;;;-0.77;79.39;100612.66;4958434;28;20154;-61
2021/12/14 09:19:20;;;;;;;;;;;;;;;-0.91;78.78;100599.38;4958696;29;19951;-60
2021/12/14 09:22:08;;;;;;;;;;;;;;;-1.05;78.55;100601.38;4960426;28;20196;-61
2021/12/14 09:24:55;;;;;;;;;;;;;;;-1.00;78.20;100596.44;4954981;29;19930;-59
2021/12/14 09:27:41;;;;;;;;;;;;;;;-0.91;79.32;100603.59;4958458;29;19977;-60
2021/12/14 09:30:28;;;;;;;;;;;;;;;-0.94;78.20;100601.81;4957353;29;20337;-60
2021/12/14 09:33:15;;;;;;;;;;;;;;;-0.92;78.86;100594.25;4957331;29;19921;-61
2021/12/14 09:36:01;;;;;;;;;;;;;;;-0.82;79.83;100595.47;4956712;29;19985;-61
2021/12/14 09:38:52;;;;;;;;;;;;;;;-1.05;79.01;100598.81;4956899;29;19914;-60
2021/12/14 09:41:39;;;;;;;;;;;;;;;-0.86;80.10;100589.38;4957715;29;19930;-60
2021/12/14 09:44:26;;;;;;;;;;;;;;;-0.82;79.29;100590.38;4959107;29;19930;-61
2021/12/14 09:47:14;;;;;;;;;;;;;;;-0.76;79.40;100588.06;4958222;29;19981;-60
2021/12/14 09:50:03;;;;;;;;;;;;;;;-0.85;77.78;100601.31;4957665;29;19922;-60
2021/12/14 09:52:49;;;;;;;;;;;;;;;-0.88;78.10;100586.78;4958995;29;19925;-61
2021/12/14 09:55:36;;;;;;;;;;;;;;;-1.02;77.05;100590.47;4956823;29;20258;-61
2021/12/14 09:58:26;;;;;;;;;;;;;;;-1.23;77.22;100586.25;4955289;28;19985;-61
2021/12/14 10:01:11;;;;;;;;;;;;;;;-1.08;78.69;100582.59;4955038;29;19914;-60
2021/12/14 10:04:00;;;;;;;;;;;;;;;-1.10;79.41;100591.81;4956382;28;19989;-61
2021/12/14 10:06:46;;;;;;;;;;;;;;;-1.53;78.11;100584.97;4954272;28;19922;-60
2021/12/14 10:09:38;;;;;;;;;;;;;;;-1.66;79.85;100583.59;4956752;29;19925;-60
2021/12/14 10:15:31;;;;;;;;;;;;;;;-1.64;79.13;100585.41;4958116;29;19925;-61
2021/12/14 10:18:25;;;;;;;;;;;;;;;-1.40;80.79;100584.66;4957456;29;20096;-59
2021/12/14 10:21:13;;;;;;;;;;;;;;;-1.32;79.32;100583.31;4951300;29;19925;-60
2021/12/14 10:24:01;;;;;;;;;;;;;;;-1.33;79.05;100589.19;4948779;28;20144;-59
2021/12/14 10:26:49;;;;;;;;;;;;;;;-1.63;78.75;100586.25;4955384;28;20009;-60
2021/12/14 10:29:34;;;;;;;;;;;;;;;-1.69;80.12;100588.53;4957275;29;20080;-59
2021/12/14 10:32:22;;;;;;;;;;;;;;;-1.43;81.32;100589.63;4959162;29;19910;-61
2021/12/14 10:35:15;;;;;;;;;;;;;;;-1.36;80.19;100586.53;4952381;28;19990;-61
2021/12/14 10:38:15;;;;;;;;;;;;;;;-1.46;79.86;100589.50;4947626;29;19938;-60
2021/12/14 10:44:10;;;;;;;;;;;;;;;-1.79;79.97;100597.44;4955677;29;19922;-61
2021/12/14 10:46:56;;;;;;;;;;;;;;;-1.67;80.79;100604.69;4959820;29;20331;-61
2021/12/14 10:49:42;;;;;;;;;;;;;;;-1.56;81.07;100599.25;4951170;29;19915;-60
2021/12/14 10:52:29;;;;;;;;;;;;;;;-1.51;81.27;100601.13;4958504;29;20115;-59
2021/12/14 10:55:26;;;;;;;;;;;;;;;-1.37;81.32;100589.00;4957988;28;19930;-61
2021/12/14 10:58:14;;;;;;;;;;;;;;;-1.30;80.70;100601.16;4955673;29;19922;-61
2021/12/14 11:01:04;;;;;;;;;;;;;;;-1.25;79.63;100594.63;4954694;28;19919;-59
2021/12/14 11:03:51;;;;;;;;;;;;;;;-1.31;80.37;100595.22;4958543;29;20099;-61
2021/12/14 11:06:42;;;;;;;;;;;;;;;-1.24;79.23;100598.88;4956708;29;20162;-61
2021/12/14 11:09:42;;;;;;;;;;;;;;;-1.31;79.29;100594.34;4956563;29;20239;-61
2021/12/14 11:12:27;;;;;;;;;;;;;;;-1.22;79.63;100593.06;4957162;29;19922;-60
2021/12/14 11:15:16;;;;;;;;;;;;;;;-1.27;79.67;100593.66;4958723;28;19957;-61
2021/12/14 11:18:13;;;;;;;;;;;;;;;-1.22;79.76;100590.50;4979867;28;20424;-61
2021/12/14 11:21:05;;;;;;;;;;;;;;;-1.18;79.31;100586.44;4972048;28;19923;-60
2021/12/14 11:23:52;;;;;;;;;;;;;;;-1.14;80.05;100577.25;4959757;29;19930;-60
2021/12/14 11:26:39;;;;;;;;;;;;;;;-1.13;80.81;100576.44;4959044;28;19923;-61
2021/12/14 11:29:24;;;;;;;;;;;;;;;-1.13;79.65;100571.38;4959348;29;19914;-61
2021/12/14 11:32:15;;;;;;;;;;;;;;;-1.08;80.92;100572.44;4960206;28;19921;-60
2021/12/14 11:35:13;;;;;;;;;;;;;;;-1.10;80.03;100563.84;4959700;29;19926;-60
2021/12/14 11:38:01;;;;;;;;;;;;;;;-1.21;80.04;100566.00;4957952;28;20116;-60
2021/12/14 11:40:47;;;;;;;;;;;;;;;-1.34;79.19;100562.09;4962876;29;20248;-60
2021/12/14 11:43:32;;;;;;;;;;;;;;;-1.23;79.63;100563.38;4962342;29;19922;-60
2021/12/14 11:46:18;;;;;;;;;;;;;;;-1.17;80.65;100556.78;4962813;28;19977;-60
2021/12/14 11:49:04;;;;;;;;;;;;;;;-1.13;79.10;100559.50;4963027;29;19934;-60
2021/12/14 11:51:51;;;;;;;;;;;;;;;-1.14;79.82;100564.53;4963308;29;19937;-60
2021/12/14 11:54:45;;;;;;;;;;;;;;;-1.09;79.73;100569.00;4961186;29;19915;-61
2021/12/14 11:57:31;;;;;;;;;;;;;;;-1.09;79.32;100565.59;4960525;29;19918;-60
2021/12/14 12:00:20;;;;;;;;;;;;;;;-1.10;79.59;100563.84;4957896;29;20020;-61
2021/12/14 12:03:20;;;;;;;;;;;;;;;-1.15;79.58;100556.06;4949487;29;20242;-59
2021/12/14 12:09:33;;;;;;;;;;;;;;;-1.29;78.93;100568.19;4953007;29;19950;-63
2021/12/14 12:12:45;;;;;;;;;;;;;;;-1.18;80.85;100563.56;4962008;29;19945;-60
2021/12/14 12:15:30;;;;;;;;;;;;;;;-1.26;79.69;100562.38;4963014;28;19921;-59
2021/12/14 12:18:16;;;;;;;;;;;;;;;-1.24;79.54;100571.81;4961687;29;19929;-60
2021/12/14 12:21:03;;;;;;;;;;;;;;;-1.29;80.07;100567.34;4960615;29;19977;-61
2021/12/14 12:23:49;;;;;;;;;;;;;;;-1.34;79.69;100564.63;4961339;29;19933;-60
2021/12/14 12:26:34;;;;;;;;;;;;;;;-1.40;80.22;100566.88;4961264;29;19922;-60
2021/12/14 12:29:25;;;;;;;;;;;;;;;-1.50;80.46;100567.31;4962090;29;19914;-60
2021/12/14 12:32:21;;;;;;;;;;;;;;;-1.38;81.20;100572.91;4960111;29;19914;-60
2021/12/14 12:35:24;;;;;;;;;;;;;;;-1.35;80.86;100574.69;4958989;29;20201;-61
2021/12/14 12:38:20;;;;;;;;;;;;;;;-1.43;80.28;100579.47;4961045;29;19969;-60
2021/12/14 12:41:09;;;;;;;;;;;;;;;-1.48;80.53;100573.31;4959712;29;19926;-60
2021/12/14 12:44:09;;;;;;;;;;;;;;;-1.48;80.32;100584.38;4961213;29;20170;-60
2021/12/14 12:47:00;;;;;;;;;;;;;;;-1.42;80.44;100583.75;4951596;29;19914;-60
2021/12/14 12:49:56;;;;;;;;;;;;;;;-1.36;81.46;100589.06;4957408;28;19922;-61
2021/12/14 12:52:43;;;;;;;;;;;;;;;-1.34;80.44;100579.88;4960896;29;19949;-60
2021/12/14 12:55:31;;;;;;;;;;;;;;;-1.32;80.01;100587.53;4957868;29;19973;-60
2021/12/14 12:58:19;;;;;;;;;;;;;;;-1.30;80.31;100583.38;4960961;29;19922;-59
2021/12/14 13:01:05;;;;;;;;;;;;;;;-1.26;81.04;100583.56;4959428;29;20156;-60
2021/12/14 13:03:50;;;;;;;;;;;;;;;-1.18;81.64;100585.53;4961079;29;19992;-61
2021/12/14 13:06:36;;;;;;;;;;;;;;;-1.20;79.82;100587.16;4962731;29;20091;-60
2021/12/14 13:09:22;;;;;;;;;;;;;;;-1.25;81.36;100577.69;4951484;28;19922;-61
2021/12/14 13:12:07;;;;;;;;;;;;;;;-1.18;80.56;100572.84;4959102;28;19922;-60
2021/12/14 13:14:53;;;;;;;;;;;;;;;-1.54;80.20;100556.16;4962151;29;20215;-60
2021/12/14 13:17:39;;;;;;;;;;;;;;;-1.65;80.14;100557.41;4961746;29;20216;-60
2021/12/14 13:20:31;;;;;;;;;;;;;;;-1.74;80.26;100562.94;4960447;29;19922;-59
2021/12/14 13:23:19;;;;;;;;;;;;;;;-1.68;81.74;100555.59;4960770;29;19922;-59
2021/12/14 13:26:18;;;;;;;;;;;;;;;-1.75;82.37;100566.28;4960053;29;20394;-60
2021/12/14 13:29:15;;;;;;;;;;;;;;;-1.94;81.15;100557.00;4956252;29;19922;-59
2021/12/14 13:32:04;;;;;;;;;;;;;;;-1.90;82.27;100558.88;4952096;29;19916;-60
2021/12/14 13:35:10;;;;;;;;;;;;;;;-1.88;83.23;100558.94;4959131;29;19965;-60
2021/12/14 13:38:01;;;;;;;;;;;;;;;-1.98;82.82;100571.25;4959000;29;20191;-61
2021/12/14 13:40:48;;;;;;;;;;;;;;;-2.19;82.34;100580.47;4959410;29;20190;-60
2021/12/14 13:43:38;;;;;;;;;;;;;;;-2.02;82.54;100569.38;4963146;29;19921;-61
2021/12/14 13:46:24;;;;;;;;;;;;;;;-2.14;83.09;100572.25;4961522;29;19930;-62
2021/12/14 13:49:10;;;;;;;;;;;;;;;-2.13;83.59;100576.50;4961282;29;19949;-60
2021/12/14 13:51:56;;;;;;;;;;;;;;;-2.03;82.23;100569.31;4951426;29;19921;-60
2021/12/14 13:55:01;;;;;;;;;;;;;;;-2.19;83.27;100580.47;4956359;29;19910;-61
2021/12/14 13:57:55;;;;;;;;;;;;;;;-2.16;83.52;100572.97;4958722;28;19922;-60
2021/12/14 14:00:43;;;;;;;;;;;;;;;-2.13;82.89;100570.56;4945662;29;19914;-61
2021/12/14 14:03:31;;;;;;;;;;;;;;;-2.12;83.18;100562.16;4960829;29;19914;-61
2021/12/14 14:06:18;;;;;;;;;;;;;;;-2.04;83.25;100570.09;4960644;29;20069;-61
2021/12/14 14:09:04;;;;;;;;;;;;;;;-2.01;82.50;100566.03;4960363;29;19993;-59
2021/12/14 14:11:54;;;;;;;;;;;;;;;-2.02;82.41;100555.78;4961196;29;20123;-60
2021/12/14 14:14:42;;;;;;;;;;;;;;;-2.14;82.35;100569.72;4954881;29;20108;-60
2021/12/14 14:17:29;;;;;;;;;;;;;;;-2.17;82.45;100563.63;4959447;29;20211;-60
2021/12/14 14:20:18;;;;;;;;;;;;;;;-2.07;82.69;100563.22;4958459;28;19914;-60
2021/12/14 14:23:12;;;;;;;;;;;;;;;-2.37;83.13;100515.41;4958497;29;20104;-60
2021/12/14 14:25:59;;;;;;;;;;;;;;;-2.13;82.38;100566.34;4950197;29;19981;-60
2021/12/14 14:28:50;;;;;;;;;;;;;;;-2.34;82.42;100570.47;4956767;29;19922;-61
2021/12/14 14:31:47;;;;;;;;;;;;;;;-2.62;82.86;100567.56;4959745;29;19914;-61